Terminal Aerodrome Forecast
Issued by NWS

Current Version | Previous Version | Text Only | Print | Product List | Glossary On
Versions: 1 2 3 4 5 6 7 8 9 10 11 12
000
FTUS41 KPHI 251733
TAFMIV
TAF
KMIV 251733Z 2518/2618 19009KT P6SM FEW040 BKN150
     FM260000 VRB03KT P6SM BKN200
     FM260700 VRB02KT 3SM BR BKN200
     FM261300 27007KT P6SM BKN200=

USA.gov is the U.S. government's official web portal to all federal, state and local government web resources and services.